Way, Mississippi
Current Conditions -  °F | °C
As of 12:54 PM on Friday 21 Nov 2014 (Local Time) from KJAN Reporting Station
Clear Clear  
Wind Chill: 70°   Ceiling: Unl
Heat Index: 70°   Visibility: 10mi
Dew Point: 44°   Wind: 14mph
Humidity: 39%   Direction: 160°SSE
Pressure: 30.26"   Gusts: NA
Location:  32.6346°N, 89.9822°W
Report Text: KJAN 211854Z 16012KT 10SM CLR 21/07 A3026 RMK AO2 SLP244 T02110067
Loading
Personal Weather Stations






























Interactive Weather Map New forecast layout! Learn more

10-Day Weather Forecast

Advertisements
Track Severe Weather on mobile